sensor_id;sensor_type;location;lat;lon;timestamp;pressure;altitude;pressure_sealevel;temperature;humidity
15444;BME280;7822;48.146;11.576;2023-04-28T00:00:00;95101.38;;;15.15;70.14
15444;BME280;7822;48.146;11.576;2023-04-28T00:02:27;95097.78;;;15.16;69.97
15444;BME280;7822;48.146;11.576;2023-04-28T00:04:55;95100.38;;;15.16;70.02
15444;BME280;7822;48.146;11.576;2023-04-28T00:07:24;95093.53;;;15.15;69.85
15444;BME280;7822;48.146;11.576;2023-04-28T00:09:52;95094.34;;;15.15;69.75
15444;BME280;7822;48.146;11.576;2023-04-28T00:12:22;95094.34;;;15.15;70.08
15444;BME280;7822;48.146;11.576;2023-04-28T00:14:50;95093.53;;;15.15;70.05
15444;BME280;7822;48.146;11.576;2023-04-28T00:17:18;95090.09;;;15.14;70.19
15444;BME280;7822;48.146;11.576;2023-04-28T00:19:45;95083.09;;;15.15;69.77
15444;BME280;7822;48.146;11.576;2023-04-28T00:22:13;95080.47;;;15.15;69.90
15444;BME280;7822;48.146;11.576;2023-04-28T00:24:42;95087.47;;;15.14;70.14
15444;BME280;7822;48.146;11.576;2023-04-28T00:27:10;95079.66;;;15.14;69.90
15444;BME280;7822;48.146;11.576;2023-04-28T00:29:38;95077.03;;;15.14;69.98
15444;BME280;7822;48.146;11.576;2023-04-28T00:32:05;95066.56;;;15.14;69.91
15444;BME280;7822;48.146;11.576;2023-04-28T00:34:33;95067.41;;;15.15;70.07
15444;BME280;7822;48.146;11.576;2023-04-28T00:37:02;95065.75;;;15.14;70.03
15444;BME280;7822;48.146;11.576;2023-04-28T00:39:30;95062.34;;;15.13;70.15
15444;BME280;7822;48.146;11.576;2023-04-28T00:42:00;95061.50;;;15.13;70.23
15444;BME280;7822;48.146;11.576;2023-04-28T00:44:30;95061.50;;;15.13;70.07
15444;BME280;7822;48.146;11.576;2023-04-28T00:47:00;95067.56;;;15.13;70.03
15444;BME280;7822;48.146;11.576;2023-04-28T00:49:29;95064.97;;;15.13;70.01
15444;BME280;7822;48.146;11.576;2023-04-28T00:52:04;95061.50;;;15.13;69.74
15444;BME280;7822;48.146;11.576;2023-04-28T00:54:33;95058.06;;;15.12;70.19
15444;BME280;7822;48.146;11.576;2023-04-28T00:57:04;95062.47;;;15.12;70.06
15444;BME280;7822;48.146;11.576;2023-04-28T00:59:34;95059.03;;;15.11;70.20
15444;BME280;7822;48.146;11.576;2023-04-28T01:02:04;95057.25;;;15.12;69.96
15444;BME280;7822;48.146;11.576;2023-04-28T01:04:35;95055.47;;;15.12;70.14
15444;BME280;7822;48.146;11.576;2023-04-28T01:07:04;95053.00;;;15.11;70.04
15444;BME280;7822;48.146;11.576;2023-04-28T01:09:34;95052.84;;;15.12;70.01
15444;BME280;7822;48.146;11.576;2023-04-28T01:12:05;95053.69;;;15.13;70.00
15444;BME280;7822;48.146;11.576;2023-04-28T01:14:34;95048.59;;;15.11;69.99
15444;BME280;7822;48.146;11.576;2023-04-28T01:17:03;95041.56;;;15.12;69.85
15444;BME280;7822;48.146;11.576;2023-04-28T01:19:33;95039.94;;;15.11;69.92
15444;BME280;7822;48.146;11.576;2023-04-28T01:22:02;95035.69;;;15.10;70.16
15444;BME280;7822;48.146;11.576;2023-04-28T01:24:33;95030.28;;;15.11;70.19
15444;BME280;7822;48.146;11.576;2023-04-28T01:27:02;95026.06;;;15.10;70.09
15444;BME280;7822;48.146;11.576;2023-04-28T01:29:32;95021.66;;;15.11;70.02
15444;BME280;7822;48.146;11.576;2023-04-28T01:32:01;95019.84;;;15.11;69.93
15444;BME280;7822;48.146;11.576;2023-04-28T01:34:31;95012.84;;;15.12;70.20
15444;BME280;7822;48.146;11.576;2023-04-28T01:37:00;95004.16;;;15.11;70.10
15444;BME280;7822;48.146;11.576;2023-04-28T01:39:29;95015.31;;;15.13;69.94
15444;BME280;7822;48.146;11.576;2023-04-28T01:42:02;95011.22;;;15.11;70.02
15444;BME280;7822;48.146;11.576;2023-04-28T01:44:31;95013.66;;;15.12;69.99
15444;BME280;7822;48.146;11.576;2023-04-28T01:47:01;95017.22;;;15.11;69.84
15444;BME280;7822;48.146;11.576;2023-04-28T01:49:30;95012.00;;;15.11;70.00
15444;BME280;7822;48.146;11.576;2023-04-28T01:51:59;95014.63;;;15.11;70.24
15444;BME280;7822;48.146;11.576;2023-04-28T01:54:29;95017.22;;;15.11;69.99
15444;BME280;7822;48.146;11.576;2023-04-28T01:56:58;95012.84;;;15.12;69.96
15444;BME280;7822;48.146;11.576;2023-04-28T01:59:30;95020.84;;;15.10;70.09
15444;BME280;7822;48.146;11.576;2023-04-28T02:01:59;95017.22;;;15.11;70.14
15444;BME280;7822;48.146;11.576;2023-04-28T02:04:29;95019.84;;;15.11;70.03
15444;BME280;7822;48.146;11.576;2023-04-28T02:06:58;95016.44;;;15.11;69.80
15444;BME280;7822;48.146;11.576;2023-04-28T02:09:28;95023.44;;;15.10;69.84
15444;BME280;7822;48.146;11.576;2023-04-28T02:11:57;95025.06;;;15.11;69.98
15444;BME280;7822;48.146;11.576;2023-04-28T02:14:26;95029.50;;;15.11;70.12
15444;BME280;7822;48.146;11.576;2023-04-28T02:16:57;95033.91;;;15.10;69.97
15444;BME280;7822;48.146;11.576;2023-04-28T02:19:27;95036.50;;;15.10;70.10
15444;BME280;7822;48.146;11.576;2023-04-28T02:21:56;95040.91;;;15.10;69.83
15444;BME280;7822;48.146;11.576;2023-04-28T02:24:25;95028.69;;;15.10;69.99
15444;BME280;7822;48.146;11.576;2023-04-28T02:26:54;95020.00;;;15.10;69.98
15444;BME280;7822;48.146;11.576;2023-04-28T02:29:24;95024.41;;;15.09;70.25
15444;BME280;7822;48.146;11.576;2023-04-28T02:31:54;95027.84;;;15.10;69.89
15444;BME280;7822;48.146;11.576;2023-04-28T02:34:25;95029.63;;;15.09;70.07
15444;BME280;7822;48.146;11.576;2023-04-28T02:36:54;95021.00;;;15.09;69.81
15444;BME280;7822;48.146;11.576;2023-04-28T02:39:23;95030.47;;;15.10;69.91
15444;BME280;7822;48.146;11.576;2023-04-28T02:41:53;95021.78;;;15.09;69.83
15444;BME280;7822;48.146;11.576;2023-04-28T02:44:23;95006.94;;;15.10;70.12
15444;BME280;7822;48.146;11.576;2023-04-28T02:46:52;95006.13;;;15.09;69.93
15444;BME280;7822;48.146;11.576;2023-04-28T02:49:21;95000.09;;;15.09;69.82
15444;BME280;7822;48.146;11.576;2023-04-28T02:51:52;94996.66;;;15.08;70.29
15444;BME280;7822;48.146;11.576;2023-04-28T02:54:22;94998.44;;;15.08;70.04
15444;BME280;7822;48.146;11.576;2023-04-28T02:56:55;94993.22;;;15.08;69.94
15444;BME280;7822;48.146;11.576;2023-04-28T02:59:25;94994.88;;;15.09;69.92
15444;BME280;7822;48.146;11.576;2023-04-28T03:01:55;94990.44;;;15.09;70.15
15444;BME280;7822;48.146;11.576;2023-04-28T03:04:25;94988.81;;;15.08;69.93
15444;BME280;7822;48.146;11.576;2023-04-28T03:06:56;94986.22;;;15.08;70.15
15444;BME280;7822;48.146;11.576;2023-04-28T03:09:25;94987.03;;;15.09;70.07
15444;BME280;7822;48.146;11.576;2023-04-28T03:11:55;94992.25;;;15.09;69.99
15444;BME280;7822;48.146;11.576;2023-04-28T03:14:24;94989.66;;;15.09;70.05
15444;BME280;7822;48.146;11.576;2023-04-28T03:16:53;94996.50;;;15.10;70.28
15444;BME280;7822;48.146;11.576;2023-04-28T03:19:24;95001.88;;;15.08;70.24
15444;BME280;7822;48.146;11.576;2023-04-28T03:21:55;94987.84;;;15.09;70.08
15444;BME280;7822;48.146;11.576;2023-04-28T03:24:24;94995.66;;;15.09;69.93
15444;BME280;7822;48.146;11.576;2023-04-28T03:26:53;94989.66;;;15.09;70.05
15444;BME280;7822;48.146;11.576;2023-04-28T03:29:23;94981.81;;;15.09;70.03
15444;BME280;7822;48.146;11.576;2023-04-28T03:31:52;94981.00;;;15.08;69.97
15444;BME280;7822;48.146;11.576;2023-04-28T03:34:21;94972.97;;;15.10;70.21
15444;BME280;7822;48.146;11.576;2023-04-28T03:36:51;94977.38;;;15.09;70.17
15444;BME280;7822;48.146;11.576;2023-04-28T03:39:21;94968.75;;;15.09;70.17
15444;BME280;7822;48.146;11.576;2023-04-28T03:41:51;94970.38;;;15.10;70.03
15444;BME280;7822;48.146;11.576;2023-04-28T03:44:20;94973.16;;;15.08;70.20
15444;BME280;7822;48.146;11.576;2023-04-28T03:46:50;94974.94;;;15.08;70.12
15444;BME280;7822;48.146;11.576;2023-04-28T03:49:19;94979.34;;;15.07;70.06
15444;BME280;7822;48.146;11.576;2023-04-28T03:51:48;94988.00;;;15.08;70.15
15444;BME280;7822;48.146;11.576;2023-04-28T03:54:18;94994.06;;;15.08;70.17
15444;BME280;7822;48.146;11.576;2023-04-28T03:56:49;95005.31;;;15.09;70.37
15444;BME280;7822;48.146;11.576;2023-04-28T03:59:18;95002.06;;;15.07;70.24
15444;BME280;7822;48.146;11.576;2023-04-28T04:01:47;94997.63;;;15.07;70.13
15444;BME280;7822;48.146;11.576;2023-04-28T04:04:16;94992.56;;;15.06;70.25
15444;BME280;7822;48.146;11.576;2023-04-28T04:06:47;94995.00;;;15.07;69.97
15444;BME280;7822;48.146;11.576;2023-04-28T04:09:16;94981.16;;;15.07;70.14
15444;BME280;7822;48.146;11.576;2023-04-28T04:11:45;94981.94;;;15.07;70.30
15444;BME280;7822;48.146;11.576;2023-04-28T04:14:16;94978.53;;;15.07;70.25
15444;BME280;7822;48.146;11.576;2023-04-28T04:16:46;94986.38;;;15.07;70.20
15444;BME280;7822;48.146;11.576;2023-04-28T04:19:15;94976.72;;;15.07;70.41
15444;BME280;7822;48.146;11.576;2023-04-28T04:21:45;94971.50;;;15.07;70.32
15444;BME280;7822;48.146;11.576;2023-04-28T04:24:14;94962.88;;;15.07;70.23
15444;BME280;7822;48.146;11.576;2023-04-28T04:26:44;94962.88;;;15.07;70.13
15444;BME280;7822;48.146;11.576;2023-04-28T04:29:14;94957.63;;;15.07;70.14
15444;BME280;7822;48.146;11.576;2023-04-28T04:31:44;94957.63;;;15.07;70.32
15444;BME280;7822;48.146;11.576;2023-04-28T04:34:14;94958.44;;;15.07;70.36
15444;BME280;7822;48.146;11.576;2023-04-28T04:36:43;94963.66;;;15.07;70.27
15444;BME280;7822;48.146;11.576;2023-04-28T04:39:13;94963.66;;;15.07;70.36
15444;BME280;7822;48.146;11.576;2023-04-28T04:41:42;94965.47;;;15.07;70.32
15444;BME280;7822;48.146;11.576;2023-04-28T04:44:11;94977.38;;;15.09;70.60
15444;BME280;7822;48.146;11.576;2023-04-28T04:46:41;94987.03;;;15.09;70.44
15444;BME280;7822;48.146;11.576;2023-04-28T04:49:12;94979.19;;;15.09;70.09
15444;BME280;7822;48.146;11.576;2023-04-28T04:51:41;94985.22;;;15.09;70.06
15444;BME280;7822;48.146;11.576;2023-04-28T04:54:10;94981.00;;;15.08;70.31
15444;BME280;7822;48.146;11.576;2023-04-28T04:56:40;94985.22;;;15.09;70.23
15444;BME280;7822;48.146;11.576;2023-04-28T04:59:09;94985.22;;;15.09;70.30
15444;BME280;7822;48.146;11.576;2023-04-28T05:01:39;94992.09;;;15.10;70.50
15444;BME280;7822;48.146;11.576;2023-04-28T05:04:08;94997.31;;;15.10;70.11
15444;BME280;7822;48.146;11.576;2023-04-28T05:06:39;95001.72;;;15.10;70.27
15444;BME280;7822;48.146;11.576;2023-04-28T05:09:09;94995.66;;;15.09;70.21
15444;BME280;7822;48.146;11.576;2023-04-28T05:11:38;95006.94;;;15.10;69.98
15444;BME280;7822;48.146;11.576;2023-04-28T05:14:07;95000.91;;;15.09;70.48
15444;BME280;7822;48.146;11.576;2023-04-28T05:16:37;95005.31;;;15.09;70.44
15444;BME280;7822;48.146;11.576;2023-04-28T05:19:06;95004.34;;;15.10;70.58
15444;BME280;7822;48.146;11.576;2023-04-28T05:21:35;95009.56;;;15.10;70.35
15444;BME280;7822;48.146;11.576;2023-04-28T05:24:07;95005.31;;;15.09;70.29
15444;BME280;7822;48.146;11.576;2023-04-28T05:26:36;95005.31;;;15.09;70.31
15444;BME280;7822;48.146;11.576;2023-04-28T05:29:05;95006.13;;;15.09;70.29
15444;BME280;7822;48.146;11.576;2023-04-28T05:31:34;95019.19;;;15.09;70.12
15444;BME280;7822;48.146;11.576;2023-04-28T05:34:04;95010.56;;;15.09;70.25
15444;BME280;7822;48.146;11.576;2023-04-28T05:36:33;95011.34;;;15.09;70.24
15444;BME280;7822;48.146;11.576;2023-04-28T05:39:02;95013.97;;;15.09;70.47
15444;BME280;7822;48.146;11.576;2023-04-28T05:41:34;95014.78;;;15.10;70.27
15444;BME280;7822;48.146;11.576;2023-04-28T05:44:04;95001.72;;;15.10;70.22
15444;BME280;7822;48.146;11.576;2023-04-28T05:46:33;95003.38;;;15.11;70.21
15444;BME280;7822;48.146;11.576;2023-04-28T05:49:02;94998.94;;;15.11;70.13
15444;BME280;7822;48.146;11.576;2023-04-28T05:51:29;94998.94;;;15.11;70.17
15444;BME280;7822;48.146;11.576;2023-04-28T05:53:57;94998.94;;;15.11;70.27
15444;BME280;7822;48.146;11.576;2023-04-28T05:56:25;95028.50;;;15.12;70.46
15444;BME280;7822;48.146;11.576;2023-04-28T05:58:54;95028.50;;;15.12;70.32
15444;BME280;7822;48.146;11.576;2023-04-28T06:01:23;95011.03;;;15.12;70.19
15444;BME280;7822;48.146;11.576;2023-04-28T06:03:51;95014.63;;;15.11;70.41
15444;BME280;7822;48.146;11.576;2023-04-28T06:06:22;95014.63;;;15.11;70.29
15444;BME280;7822;48.146;11.576;2023-04-28T06:08:50;95019.06;;;15.11;70.49
15444;BME280;7822;48.146;11.576;2023-04-28T06:11:17;95008.59;;;15.11;70.44
15444;BME280;7822;48.146;11.576;2023-04-28T06:13:48;95010.38;;;15.10;70.19
15444;BME280;7822;48.146;11.576;2023-04-28T06:16:17;95011.22;;;15.11;70.27
15444;BME280;7822;48.146;11.576;2023-04-28T06:18:44;95015.63;;;15.10;70.31
15444;BME280;7822;48.146;11.576;2023-04-28T06:21:15;95012.84;;;15.12;70.32
15444;BME280;7822;48.146;11.576;2023-04-28T06:23:42;95005.00;;;15.12;70.34
15444;BME280;7822;48.146;11.576;2023-04-28T06:26:10;95011.03;;;15.12;70.19
15444;BME280;7822;48.146;11.576;2023-04-28T06:28:38;95006.78;;;15.11;70.32
15444;BME280;7822;48.146;11.576;2023-04-28T06:31:05;95009.25;;;15.13;70.04
15444;BME280;7822;48.146;11.576;2023-04-28T06:33:34;94997.97;;;15.12;70.44
15444;BME280;7822;48.146;11.576;2023-04-28T06:36:02;94994.41;;;15.13;70.30
15444;BME280;7822;48.146;11.576;2023-04-28T06:38:30;95001.41;;;15.13;70.46
15444;BME280;7822;48.146;11.576;2023-04-28T06:40:58;94993.59;;;15.13;70.21
15444;BME280;7822;48.146;11.576;2023-04-28T06:43:25;94992.75;;;15.12;70.35
15444;BME280;7822;48.146;11.576;2023-04-28T06:45:53;94983.13;;;15.13;70.28
15444;BME280;7822;48.146;11.576;2023-04-28T06:48:21;94975.28;;;15.13;70.47
15444;BME280;7822;48.146;11.576;2023-04-28T06:50:50;94972.69;;;15.13;70.05
15444;BME280;7822;48.146;11.576;2023-04-28T06:53:17;94963.06;;;15.13;70.45
15444;BME280;7822;48.146;11.576;2023-04-28T06:55:45;94957.97;;;15.12;70.39
15444;BME280;7822;48.146;11.576;2023-04-28T06:58:13;94962.22;;;15.13;70.44
15444;BME280;7822;48.146;11.576;2023-04-28T07:00:40;94962.38;;;15.11;70.27
15444;BME280;7822;48.146;11.576;2023-04-28T07:03:08;94966.63;;;15.12;70.42
15444;BME280;7822;48.146;11.576;2023-04-28T07:05:37;94953.72;;;15.11;70.36
15444;BME280;7822;48.146;11.576;2023-04-28T07:08:06;94955.34;;;15.12;70.50
15444;BME280;7822;48.146;11.576;2023-04-28T07:10:34;94954.53;;;15.11;70.39
15444;BME280;7822;48.146;11.576;2023-04-28T07:13:01;94964.97;;;15.11;70.13
15444;BME280;7822;48.146;11.576;2023-04-28T07:15:29;94964.97;;;15.11;70.40
15444;BME280;7822;48.146;11.576;2023-04-28T07:17:57;94961.56;;;15.11;70.32
15444;BME280;7822;48.146;11.576;2023-04-28T07:20:25;94961.56;;;15.11;70.37
15444;BME280;7822;48.146;11.576;2023-04-28T07:22:52;94961.56;;;15.11;70.52
15444;BME280;7822;48.146;11.576;2023-04-28T07:25:21;94958.13;;;15.10;70.51
15444;BME280;7822;48.146;11.576;2023-04-28T07:27:49;94951.25;;;15.09;70.32
15444;BME280;7822;48.146;11.576;2023-04-28T07:30:16;94958.13;;;15.10;70.32
15444;BME280;7822;48.146;11.576;2023-04-28T07:32:50;94966.78;;;15.11;70.28
15444;BME280;7822;48.146;11.576;2023-04-28T07:35:18;94962.53;;;15.10;70.18
15444;BME280;7822;48.146;11.576;2023-04-28T07:37:46;94957.31;;;15.10;70.28
15444;BME280;7822;48.146;11.576;2023-04-28T07:40:13;94956.34;;;15.11;70.47
15444;BME280;7822;48.146;11.576;2023-04-28T07:42:43;94949.47;;;15.10;70.51
15444;BME280;7822;48.146;11.576;2023-04-28T07:45:11;94952.06;;;15.10;70.58
15444;BME280;7822;48.146;11.576;2023-04-28T07:47:39;94953.72;;;15.11;70.36
15444;BME280;7822;48.146;11.576;2023-04-28T07:50:07;94962.53;;;15.10;70.28
15444;BME280;7822;48.146;11.576;2023-04-28T07:52:35;94966.78;;;15.11;70.33
15444;BME280;7822;48.146;11.576;2023-04-28T07:55:03;94966.13;;;15.09;70.40
15444;BME280;7822;48.146;11.576;2023-04-28T07:57:31;94964.97;;;15.11;70.56
15444;BME280;7822;48.146;11.576;2023-04-28T08:00:00;94964.19;;;15.11;70.46
15444;BME280;7822;48.146;11.576;2023-04-28T08:02:28;94971.19;;;15.10;70.28
15444;BME280;7822;48.146;11.576;2023-04-28T08:04:56;94966.78;;;15.11;70.45
15444;BME280;7822;48.146;11.576;2023-04-28T08:07:24;94973.81;;;15.10;70.46
15444;BME280;7822;48.146;11.576;2023-04-28T08:09:52;94977.25;;;15.11;70.62
15444;BME280;7822;48.146;11.576;2023-04-28T08:12:20;94978.88;;;15.12;70.61
15444;BME280;7822;48.146;11.576;2023-04-28T08:14:48;94969.25;;;15.12;70.44
15444;BME280;7822;48.146;11.576;2023-04-28T08:17:17;94972.81;;;15.11;70.46
15444;BME280;7822;48.146;11.576;2023-04-28T08:19:45;94970.19;;;15.11;70.39
15444;BME280;7822;48.146;11.576;2023-04-28T08:22:13;94965.97;;;15.10;70.50
15444;BME280;7822;48.146;11.576;2023-04-28T08:24:41;94962.38;;;15.11;70.60
15444;BME280;7822;48.146;11.576;2023-04-28T08:27:08;94961.56;;;15.11;70.62
15444;BME280;7822;48.146;11.576;2023-04-28T08:29:37;94958.78;;;15.12;70.43
15444;BME280;7822;48.146;11.576;2023-04-28T08:32:04;94947.69;;;15.10;70.26
15444;BME280;7822;48.146;11.576;2023-04-28T08:34:33;94944.06;;;15.11;70.28
15444;BME280;7822;48.146;11.576;2023-04-28T08:37:01;94948.50;;;15.11;70.48
15444;BME280;7822;48.146;11.576;2023-04-28T08:39:29;94947.69;;;15.10;70.33
15444;BME280;7822;48.146;11.576;2023-04-28T08:42:01;94932.84;;;15.11;70.60
15444;BME280;7822;48.146;11.576;2023-04-28T08:44:35;94935.44;;;15.11;70.47
15444;BME280;7822;48.146;11.576;2023-04-28T08:47:09;94926.78;;;15.10;70.34
15444;BME280;7822;48.146;11.576;2023-04-28T08:49:40;94934.63;;;15.10;70.46
15444;BME280;7822;48.146;11.576;2023-04-28T08:52:09;94939.84;;;15.10;70.40
15444;BME280;7822;48.146;11.576;2023-04-28T08:54:38;94929.56;;;15.09;70.43
15444;BME280;7822;48.146;11.576;2023-04-28T08:57:08;94934.63;;;15.10;70.62
15444;BME280;7822;48.146;11.576;2023-04-28T08:59:39;94939.84;;;15.10;70.39
15444;BME280;7822;48.146;11.576;2023-04-28T09:02:07;94939.84;;;15.10;70.64
15444;BME280;7822;48.146;11.576;2023-04-28T09:04:35;94932.84;;;15.11;70.69
15444;BME280;7822;48.146;11.576;2023-04-28T09:07:09;94931.19;;;15.10;70.49
15444;BME280;7822;48.146;11.576;2023-04-28T09:09:37;94932.16;;;15.09;70.51
15444;BME280;7822;48.146;11.576;2023-04-28T09:12:06;94926.94;;;15.09;70.52
15444;BME280;7822;48.146;11.576;2023-04-28T09:14:35;94935.56;;;15.09;70.52
15444;BME280;7822;48.146;11.576;2023-04-28T09:17:08;94937.41;;;15.09;70.49
15444;BME280;7822;48.146;11.576;2023-04-28T09:19:37;94929.56;;;15.09;70.74
15444;BME280;7822;48.146;11.576;2023-04-28T09:22:09;94925.13;;;15.09;70.47
15444;BME280;7822;48.146;11.576;2023-04-28T09:24:52;94923.50;;;15.08;70.60
15444;BME280;7822;48.146;11.576;2023-04-28T09:27:25;94923.50;;;15.08;70.77
15444;BME280;7822;48.146;11.576;2023-04-28T09:29:53;94928.72;;;15.08;70.65
15444;BME280;7822;48.146;11.576;2023-04-28T09:32:22;94927.75;;;15.09;70.63
15444;BME280;7822;48.146;11.576;2023-04-28T09:34:51;94927.75;;;15.09;70.65
15444;BME280;7822;48.146;11.576;2023-04-28T09:37:24;94922.69;;;15.08;70.87
15444;BME280;7822;48.146;11.576;2023-04-28T09:39:53;94914.69;;;15.09;70.64
15444;BME280;7822;48.146;11.576;2023-04-28T09:42:31;94913.88;;;15.09;70.65
15444;BME280;7822;48.146;11.576;2023-04-28T09:45:00;94917.28;;;15.09;70.43
15444;BME280;7822;48.146;11.576;2023-04-28T09:47:29;94912.88;;;15.10;70.31
15444;BME280;7822;48.146;11.576;2023-04-28T09:49:58;94907.66;;;15.10;70.72
15444;BME280;7822;48.146;11.576;2023-04-28T09:52:28;94907.66;;;15.10;70.51
15444;BME280;7822;48.146;11.576;2023-04-28T09:54:56;94909.44;;;15.09;70.49
15444;BME280;7822;48.146;11.576;2023-04-28T09:57:24;94907.66;;;15.10;70.70
15444;BME280;7822;48.146;11.576;2023-04-28T09:59:54;94913.88;;;15.09;70.21
15444;BME280;7822;48.146;11.576;2023-04-28T10:02:24;94909.44;;;15.09;70.51
15444;BME280;7822;48.146;11.576;2023-04-28T10:04:55;94907.66;;;15.10;70.51
15444;BME280;7822;48.146;11.576;2023-04-28T10:07:23;94915.50;;;15.10;70.62
15444;BME280;7822;48.146;11.576;2023-04-28T10:09:54;94908.66;;;15.09;70.44
15444;BME280;7822;48.146;11.576;2023-04-28T10:12:23;94906.84;;;15.09;70.75
15444;BME280;7822;48.146;11.576;2023-04-28T10:14:51;94906.03;;;15.09;70.52
15444;BME280;7822;48.146;11.576;2023-04-28T10:17:20;94902.59;;;15.08;70.68
15444;BME280;7822;48.146;11.576;2023-04-28T10:19:52;94900.81;;;15.09;70.55
15444;BME280;7822;48.146;11.576;2023-04-28T10:22:41;94902.59;;;15.08;70.62
15444;BME280;7822;48.146;11.576;2023-04-28T10:25:25;94898.22;;;15.09;70.47
15444;BME280;7822;48.146;11.576;2023-04-28T10:27:53;94900.81;;;15.09;70.63
15444;BME280;7822;48.146;11.576;2023-04-28T10:30:22;94900.81;;;15.09;70.72
15444;BME280;7822;48.146;11.576;2023-04-28T10:33:22;94907.00;;;15.08;70.48
15444;BME280;7822;48.146;11.576;2023-04-28T10:35:52;94896.56;;;15.08;70.69
15444;BME280;7822;48.146;11.576;2023-04-28T10:38:20;94902.59;;;15.08;70.61
15444;BME280;7822;48.146;11.576;2023-04-28T10:40:50;94895.72;;;15.07;70.46
15444;BME280;7822;48.146;11.576;2023-04-28T10:43:37;94895.72;;;15.07;70.56
15444;BME280;7822;48.146;11.576;2023-04-28T10:46:07;94899.16;;;15.08;70.51
15444;BME280;7822;48.146;11.576;2023-04-28T10:48:56;94893.13;;;15.07;70.78
15444;BME280;7822;48.146;11.576;2023-04-28T10:51:27;94900.97;;;15.07;70.69
15444;BME280;7822;48.146;11.576;2023-04-28T10:54:23;94890.50;;;15.07;70.71
15444;BME280;7822;48.146;11.576;2023-04-28T10:57:19;94895.72;;;15.07;70.70
15444;BME280;7822;48.146;11.576;2023-04-28T10:59:49;94877.44;;;15.07;70.57
15444;BME280;7822;48.146;11.576;2023-04-28T11:02:47;94887.91;;;15.07;70.57
15444;BME280;7822;48.146;11.576;2023-04-28T11:05:18;94890.50;;;15.07;70.51
15444;BME280;7822;48.146;11.576;2023-04-28T11:11:17;94918.44;;;15.07;70.77
15444;BME280;7822;48.146;11.576;2023-04-28T11:13:47;94888.72;;;15.08;70.75
15444;BME280;7822;48.146;11.576;2023-04-28T11:16:17;94886.09;;;15.08;70.54
15444;BME280;7822;48.146;11.576;2023-04-28T11:18:53;94887.75;;;15.09;70.91
15444;BME280;7822;48.146;11.576;2023-04-28T11:21:22;94886.09;;;15.08;70.72
15444;BME280;7822;48.146;11.576;2023-04-28T11:23:50;94889.53;;;15.08;70.44
15444;BME280;7822;48.146;11.576;2023-04-28T11:26:19;94892.16;;;15.08;70.61
15444;BME280;7822;48.146;11.576;2023-04-28T11:28:49;94885.16;;;15.09;70.67
15444;BME280;7822;48.146;11.576;2023-04-28T11:31:18;94893.94;;;15.08;70.73
15444;BME280;7822;48.146;11.576;2023-04-28T11:33:50;94894.59;;;15.10;70.79
15444;BME280;7822;48.146;11.576;2023-04-28T11:36:30;94891.16;;;15.09;70.51
15444;BME280;7822;48.146;11.576;2023-04-28T11:38:59;94898.88;;;15.11;70.50
15444;BME280;7822;48.146;11.576;2023-04-28T11:41:26;94895.44;;;15.10;70.54
15444;BME280;7822;48.146;11.576;2023-04-28T11:43:55;94894.59;;;15.10;70.51
15444;BME280;7822;48.146;11.576;2023-04-28T11:46:24;94891.03;;;15.11;70.73
15444;BME280;7822;48.146;11.576;2023-04-28T11:49:02;94895.44;;;15.10;70.21
15444;BME280;7822;48.146;11.576;2023-04-28T11:51:35;94892.00;;;15.10;70.75
15444;BME280;7822;48.146;11.576;2023-04-28T11:54:04;94889.38;;;15.10;70.89
15444;BME280;7822;48.146;11.576;2023-04-28T11:56:36;94885.94;;;15.09;70.50
15444;BME280;7822;48.146;11.576;2023-04-28T11:59:07;94886.94;;;15.08;70.80
15444;BME280;7822;48.146;11.576;2023-04-28T12:01:44;94892.00;;;15.10;70.53
15444;BME280;7822;48.146;11.576;2023-04-28T12:04:13;94890.38;;;15.09;70.26
15444;BME280;7822;48.146;11.576;2023-04-28T12:06:42;94888.72;;;15.08;70.81
15444;BME280;7822;48.146;11.576;2023-04-28T12:09:16;94888.72;;;15.08;70.97
15444;BME280;7822;48.146;11.576;2023-04-28T12:11:55;94896.38;;;15.09;70.66
15444;BME280;7822;48.146;11.576;2023-04-28T12:14:25;94901.63;;;15.09;70.85
15444;BME280;7822;48.146;11.576;2023-04-28T12:16:52;94889.53;;;15.08;70.55
15444;BME280;7822;48.146;11.576;2023-04-28T12:19:20;94886.94;;;15.08;70.88
15444;BME280;7822;48.146;11.576;2023-04-28T12:21:59;94894.78;;;15.08;70.62
15444;BME280;7822;48.146;11.576;2023-04-28T12:24:27;94900.97;;;15.07;70.58
15444;BME280;7822;48.146;11.576;2023-04-28T12:27:13;94902.59;;;15.08;70.87
15444;BME280;7822;48.146;11.576;2023-04-28T12:29:43;94910.44;;;15.08;70.78
15444;BME280;7822;48.146;11.576;2023-04-28T12:32:13;94906.03;;;15.09;70.82
15444;BME280;7822;48.146;11.576;2023-04-28T12:34:41;94913.88;;;15.09;70.58
15444;BME280;7822;48.146;11.576;2023-04-28T12:37:11;94909.44;;;15.09;70.87
15444;BME280;7822;48.146;11.576;2023-04-28T12:39:39;94914.84;;;15.08;70.78
15444;BME280;7822;48.146;11.576;2023-04-28T12:42:08;94918.13;;;15.10;70.72
15444;BME280;7822;48.146;11.576;2023-04-28T12:44:37;94918.13;;;15.10;70.63
15444;BME280;7822;48.146;11.576;2023-04-28T12:47:08;94915.50;;;15.10;70.48
15444;BME280;7822;48.146;11.576;2023-04-28T12:49:37;94920.72;;;15.10;70.70
15444;BME280;7822;48.146;11.576;2023-04-28T12:52:05;94923.19;;;15.11;70.77
15444;BME280;7822;48.146;11.576;2023-04-28T12:54:33;94918.13;;;15.10;70.53
15444;BME280;7822;48.146;11.576;2023-04-28T12:57:01;94926.63;;;15.12;70.60
15444;BME280;7822;48.146;11.576;2023-04-28T12:59:29;94917.00;;;15.12;70.55
15444;BME280;7822;48.146;11.576;2023-04-28T13:01:58;94917.81;;;15.13;70.79
15444;BME280;7822;48.146;11.576;2023-04-28T13:04:27;94911.75;;;15.12;70.52
15444;BME280;7822;48.146;11.576;2023-04-28T13:06:56;94913.41;;;15.13;70.60
15444;BME280;7822;48.146;11.576;2023-04-28T13:09:24;94910.81;;;15.13;70.62
15444;BME280;7822;48.146;11.576;2023-04-28T13:11:52;94908.19;;;15.13;70.70
15444;BME280;7822;48.146;11.576;2023-04-28T13:14:20;94908.19;;;15.13;70.58
15444;BME280;7822;48.146;11.576;2023-04-28T13:16:48;94910.81;;;15.13;70.51